createdAt,value
2023-04-26T00:00:09.525Z,6.80
2023-04-26T00:02:38.178Z,2.72
2023-04-26T00:05:09.558Z,4.97
2023-04-26T00:07:39.329Z,6.15
2023-04-26T00:10:08.912Z,3.80
2023-04-26T00:12:38.100Z,4.03
2023-04-26T00:15:09.668Z,3.92
2023-04-26T00:17:38.402Z,2.97
2023-04-26T00:20:10.515Z,2.80
2023-04-26T00:22:39.036Z,3.42
2023-04-26T00:25:08.217Z,3.55
2023-04-26T00:27:36.660Z,4.38
2023-04-26T00:30:05.614Z,3.05
2023-04-26T00:32:36.537Z,3.30
2023-04-26T00:35:05.708Z,4.95
2023-04-26T00:37:34.236Z,3.65
2023-04-26T00:40:02.572Z,2.47
2023-04-26T00:42:31.343Z,3.40
2023-04-26T00:44:59.695Z,2.42
2023-04-26T00:47:30.902Z,2.70
2023-04-26T00:50:01.192Z,7.13
2023-04-26T00:52:30.170Z,4.93
2023-04-26T00:54:59.178Z,2.88
2023-04-26T00:57:27.543Z,3.90
2023-04-26T00:59:55.926Z,4.18
2023-04-26T01:02:24.441Z,4.68
2023-04-26T01:04:52.990Z,5.88
2023-04-26T01:07:23.076Z,3.35
2023-04-26T01:09:51.798Z,3.35
2023-04-26T01:12:20.858Z,2.10
2023-04-26T01:14:49.386Z,4.13
2023-04-26T01:17:17.760Z,3.20
2023-04-26T01:19:49.902Z,4.72
2023-04-26T01:22:18.272Z,4.10
2023-04-26T01:24:51.600Z,5.15
2023-04-26T01:27:20.004Z,2.63
2023-04-26T01:29:48.319Z,4.68
2023-04-26T01:32:16.636Z,2.75
2023-04-26T01:34:44.969Z,3.88
2023-04-26T01:37:13.369Z,3.17
2023-04-26T01:39:41.707Z,3.47
2023-04-26T01:42:11.887Z,4.80
2023-04-26T01:44:40.858Z,3.55
2023-04-26T01:47:09.239Z,3.83
2023-04-26T01:49:37.741Z,3.30
2023-04-26T01:52:06.490Z,5.45
2023-04-26T01:54:34.855Z,2.25
2023-04-26T01:57:03.958Z,4.25
2023-04-26T01:59:33.720Z,3.47
2023-04-26T02:02:02.182Z,3.83
2023-04-26T02:04:30.709Z,2.95
2023-04-26T02:06:59.212Z,5.78
2023-04-26T02:09:27.487Z,4.10
2023-04-26T02:11:55.817Z,5.70
2023-04-26T02:14:24.175Z,3.85
2023-04-26T02:16:53.953Z,4.05
2023-04-26T02:19:22.294Z,7.20
2023-04-26T02:21:55.836Z,6.18
2023-04-26T02:24:24.355Z,5.15
2023-04-26T02:26:53.197Z,5.13
2023-04-26T02:29:29.746Z,4.60
2023-04-26T02:32:12.077Z,4.45
2023-04-26T02:34:40.825Z,3.22
2023-04-26T02:37:09.416Z,4.38
2023-04-26T02:39:37.832Z,4.65
2023-04-26T02:42:10.798Z,5.68
2023-04-26T02:44:39.910Z,3.30
2023-04-26T02:47:09.942Z,3.15
2023-04-26T02:49:40.122Z,4.03
2023-04-26T02:52:08.400Z,4.68
2023-04-26T02:54:36.719Z,6.95
2023-04-26T02:57:06.306Z,5.05
2023-04-26T02:59:34.708Z,4.22
2023-04-26T03:02:03.092Z,3.80
2023-04-26T03:04:36.614Z,4.43
2023-04-26T03:07:06.576Z,7.25
2023-04-26T03:09:35.010Z,4.72
2023-04-26T03:12:03.485Z,4.60
2023-04-26T03:14:31.797Z,4.40
2023-04-26T03:17:00.181Z,3.45
2023-04-26T03:19:28.783Z,5.03
2023-04-26T03:21:57.607Z,4.70
2023-04-26T03:24:27.672Z,5.40
2023-04-26T03:26:55.958Z,5.03
2023-04-26T03:29:24.292Z,8.80
2023-04-26T03:31:52.632Z,6.45
2023-04-26T03:34:21.078Z,4.63
2023-04-26T03:36:49.425Z,4.72
2023-04-26T03:39:17.982Z,6.32
2023-04-26T03:41:47.849Z,7.07
2023-04-26T03:44:16.787Z,8.95
2023-04-26T03:46:45.183Z,9.15
2023-04-26T03:49:13.521Z,5.72
2023-04-26T03:51:42.081Z,7.72
2023-04-26T03:54:11.221Z,6.28
2023-04-26T03:56:40.206Z,7.72
2023-04-26T03:59:10.491Z,7.25
2023-04-26T04:01:38.854Z,6.55
2023-04-26T04:04:07.272Z,5.57
2023-04-26T04:06:35.932Z,3.65
2023-04-26T04:09:05.609Z,9.38
2023-04-26T04:11:35.037Z,13.80
2023-04-26T04:14:03.339Z,11.65
2023-04-26T04:16:33.120Z,9.95
2023-04-26T04:19:01.370Z,8.70
2023-04-26T04:21:29.650Z,11.05
2023-04-26T04:23:57.978Z,6.40
2023-04-26T04:26:26.499Z,8.10
2023-04-26T04:28:55.345Z,11.00
2023-04-26T04:31:24.291Z,8.77
2023-04-26T04:33:54.081Z,7.32
2023-04-26T04:36:23.054Z,6.18
2023-04-26T04:38:51.800Z,5.60
2023-04-26T04:41:20.695Z,7.60
2023-04-26T04:43:49.059Z,6.85
2023-04-26T04:46:17.424Z,4.50
2023-04-26T04:48:45.774Z,4.63
2023-04-26T04:51:15.559Z,5.82
2023-04-26T04:53:43.834Z,5.95
2023-04-26T04:56:12.159Z,5.20
2023-04-26T04:58:40.446Z,7.45
2023-04-26T05:01:08.870Z,5.47
2023-04-26T05:03:37.470Z,6.75
2023-04-26T05:06:07.009Z,9.07
2023-04-26T05:08:37.285Z,9.05
2023-04-26T05:11:05.636Z,12.95
2023-04-26T05:13:33.961Z,8.00
2023-04-26T05:16:02.561Z,6.07
2023-04-26T05:18:30.836Z,9.20
2023-04-26T05:20:59.747Z,11.35
2023-04-26T05:23:28.231Z,10.50
2023-04-26T05:25:58.258Z,6.80
2023-04-26T05:28:27.211Z,8.88
2023-04-26T05:30:55.798Z,7.63
2023-04-26T05:33:24.234Z,5.75
2023-04-26T05:35:54.345Z,6.70
2023-04-26T05:38:23.270Z,5.53
2023-04-26T05:40:51.983Z,3.70
2023-04-26T05:43:21.748Z,6.70
2023-04-26T05:45:53.656Z,9.10
2023-04-26T05:48:22.662Z,6.90
2023-04-26T05:50:51.347Z,4.82
2023-04-26T05:53:20.491Z,8.57
2023-04-26T05:55:49.208Z,4.53
2023-04-26T05:58:17.494Z,4.93
2023-04-26T06:00:47.932Z,5.22
2023-04-26T06:03:16.651Z,4.18
2023-04-26T17:19:57.067Z,4.72
2023-04-26T17:22:25.383Z,7.07
2023-04-26T17:24:53.707Z,4.60
2023-04-26T17:27:22.447Z,6.10
2023-04-26T17:29:51.058Z,3.90
2023-04-26T17:32:19.501Z,7.90
2023-04-26T17:34:48.342Z,2.72
2023-04-26T17:37:18.715Z,5.32
2023-04-26T17:39:47.096Z,3.95
2023-04-26T17:42:17.664Z,5.10
2023-04-26T17:44:47.354Z,4.03
2023-04-26T17:47:17.008Z,5.28
2023-04-26T17:49:46.588Z,4.13
2023-04-26T17:52:15.003Z,7.10
2023-04-26T17:54:44.742Z,5.50
2023-04-26T17:57:13.094Z,3.15
2023-04-26T17:59:41.710Z,4.90
2023-04-26T18:02:10.004Z,4.10
2023-04-26T18:04:38.679Z,4.07
2023-04-26T18:07:07.831Z,5.22
2023-04-26T18:09:36.971Z,5.10
2023-04-26T18:12:07.015Z,5.93
2023-04-26T18:14:35.418Z,5.78
2023-04-26T18:17:05.371Z,5.82
2023-04-26T18:19:33.671Z,7.03
2023-04-26T18:22:02.060Z,11.73
2023-04-26T18:24:31.126Z,9.40
2023-04-26T18:27:01.468Z,11.27
2023-04-26T18:29:32.768Z,18.88
2023-04-26T18:32:02.153Z,22.13
2023-04-26T18:34:30.517Z,24.38
2023-04-26T18:36:59.011Z,21.75
